createdAt,value
2018-12-25T00:00:31.320Z,17.47
2018-12-25T00:02:59.755Z,20.30
2018-12-25T00:05:28.221Z,19.57
2018-12-25T00:07:56.656Z,19.63
2018-12-25T00:10:25.108Z,13.87
2018-12-25T00:12:53.817Z,18.00
2018-12-25T00:15:22.381Z,15.03
2018-12-25T00:17:50.909Z,16.40
2018-12-25T00:20:19.489Z,15.07
2018-12-25T00:22:47.975Z,15.07
2018-12-25T00:25:16.412Z,15.60
2018-12-25T00:27:44.880Z,12.33
2018-12-25T00:30:13.329Z,13.13
2018-12-25T00:32:41.777Z,12.83
2018-12-25T00:35:10.217Z,14.57
2018-12-25T00:37:38.683Z,13.97
2018-12-25T00:40:07.123Z,12.67
2018-12-25T00:42:35.582Z,14.50
2018-12-25T00:45:04.086Z,16.50
2018-12-25T00:47:32.544Z,12.53
2018-12-25T00:50:00.985Z,12.63
2018-12-25T00:52:29.443Z,14.83
2018-12-25T00:54:57.887Z,12.30
2018-12-25T00:57:26.349Z,14.47
2018-12-25T00:59:54.796Z,12.00
2018-12-25T01:02:23.301Z,12.07
2018-12-25T01:04:51.747Z,11.07
2018-12-25T01:07:20.216Z,12.57
2018-12-25T01:09:48.647Z,12.67
2018-12-25T01:12:17.080Z,13.07
2018-12-25T01:14:45.565Z,12.87
2018-12-25T01:17:14.001Z,12.30
2018-12-25T01:19:42.463Z,11.10
2018-12-25T01:22:10.904Z,16.03
2018-12-25T01:24:39.368Z,11.77
2018-12-25T01:27:07.818Z,10.83
2018-12-25T01:29:36.271Z,13.47
2018-12-25T01:32:04.713Z,12.47
2018-12-25T01:34:33.171Z,12.67
2018-12-25T01:37:01.613Z,13.63
2018-12-25T01:39:30.051Z,14.43
2018-12-25T01:41:58.513Z,13.07
2018-12-25T01:44:26.959Z,12.33
2018-12-25T01:46:55.425Z,14.43
2018-12-25T01:49:31.602Z,13.73
2018-12-25T01:51:54.041Z,14.33
2018-12-25T01:54:22.479Z,11.60
2018-12-25T01:56:50.956Z,12.40
2018-12-25T01:59:19.400Z,13.07
2018-12-25T02:01:47.916Z,12.73
2018-12-25T02:04:16.377Z,10.70
2018-12-25T02:06:44.828Z,11.13
2018-12-25T02:09:13.276Z,7.67
2018-12-25T02:11:41.712Z,11.60
2018-12-25T02:14:10.488Z,10.63
2018-12-25T02:16:38.928Z,11.47
2018-12-25T02:19:07.387Z,15.23
2018-12-25T02:21:35.819Z,10.73
2018-12-25T02:24:04.464Z,11.47
2018-12-25T02:26:32.917Z,11.63
2018-12-25T02:29:01.385Z,10.97
2018-12-25T02:31:29.833Z,11.10
2018-12-25T02:33:58.283Z,9.77
2018-12-25T02:36:26.737Z,11.43
2018-12-25T02:38:55.223Z,9.07
2018-12-25T02:41:23.733Z,10.60
2018-12-25T02:43:52.168Z,10.90
2018-12-25T02:46:20.629Z,13.30
2018-12-25T02:48:49.073Z,8.10
2018-12-25T02:51:17.533Z,10.10
2018-12-25T02:53:46.113Z,10.20
2018-12-25T02:56:14.714Z,9.00
2018-12-25T02:58:43.252Z,11.20
2018-12-25T03:01:11.708Z,9.97
2018-12-25T03:03:40.143Z,12.43
2018-12-25T03:06:08.685Z,13.40
2018-12-25T03:08:37.117Z,9.97
2018-12-25T03:11:05.625Z,7.87
2018-12-25T03:13:34.080Z,9.93
2018-12-25T03:16:02.987Z,9.47
2018-12-25T03:18:31.444Z,11.13
2018-12-25T03:20:59.880Z,12.07
2018-12-25T03:23:28.339Z,11.53
2018-12-25T03:25:57.134Z,10.97
2018-12-25T03:28:25.589Z,9.70
2018-12-25T03:30:54.038Z,10.13
2018-12-25T03:33:22.492Z,10.13
2018-12-25T03:35:50.935Z,10.73
2018-12-25T03:38:19.466Z,10.73
2018-12-25T03:40:47.898Z,12.63
2018-12-25T03:43:16.358Z,16.57
2018-12-25T03:45:44.795Z,10.30
2018-12-25T03:48:13.265Z,13.47
2018-12-25T03:50:41.704Z,11.70
2018-12-25T03:53:10.146Z,10.67
2018-12-25T03:55:41.574Z,10.73
2018-12-25T03:58:10.016Z,14.03
2018-12-25T04:00:38.541Z,11.40
2018-12-25T04:03:06.977Z,12.63
2018-12-25T04:05:35.511Z,12.77
2018-12-25T04:08:03.948Z,12.37
2018-12-25T04:10:32.414Z,11.30
2018-12-25T04:13:00.925Z,11.90
2018-12-25T04:15:29.549Z,10.77
2018-12-25T04:17:58.004Z,12.83
2018-12-25T04:20:26.463Z,11.10
2018-12-25T04:22:55.066Z,13.47
2018-12-25T04:25:23.504Z,11.77
2018-12-25T04:27:51.966Z,13.67
2018-12-25T04:30:20.760Z,12.17
2018-12-25T04:32:49.284Z,11.37
2018-12-25T04:35:17.721Z,10.67
2018-12-25T04:37:46.189Z,11.30
2018-12-25T04:40:14.628Z,12.73
2018-12-25T04:42:43.163Z,11.93
2018-12-25T04:45:11.680Z,11.60
2018-12-25T04:47:40.141Z,12.33
2018-12-25T04:50:08.579Z,11.77
2018-12-25T04:52:37.043Z,13.50
2018-12-25T04:55:05.680Z,11.47
2018-12-25T04:57:34.133Z,12.90
2018-12-25T05:00:02.729Z,10.37
2018-12-25T05:02:31.173Z,11.60
2018-12-25T05:04:59.634Z,13.23
2018-12-25T05:07:28.067Z,14.03
2018-12-25T05:09:56.528Z,11.87
2018-12-25T05:12:25.136Z,13.70
2018-12-25T05:14:53.605Z,14.00
2018-12-25T05:17:22.047Z,11.77
2018-12-25T05:19:50.500Z,12.57
2018-12-25T05:22:18.948Z,15.63
2018-12-25T05:24:47.412Z,12.67
2018-12-25T05:27:15.847Z,11.40
2018-12-25T05:29:44.316Z,14.67
2018-12-25T05:32:12.756Z,13.47
2018-12-25T05:34:41.216Z,13.60
2018-12-25T05:37:09.665Z,12.97
2018-12-25T05:39:38.413Z,14.00
2018-12-25T05:42:06.864Z,10.30
2018-12-25T05:44:35.324Z,12.70
2018-12-25T05:47:03.769Z,11.87
2018-12-25T05:49:32.225Z,11.97
2018-12-25T05:52:00.664Z,16.90
2018-12-25T05:54:29.120Z,14.37
2018-12-25T05:56:57.569Z,14.60
2018-12-25T05:59:26.033Z,13.83
2018-12-25T06:01:54.472Z,11.60
2018-12-25T06:04:22.928Z,16.50
2018-12-25T06:06:51.365Z,12.20
2018-12-25T06:09:19.841Z,14.80
2018-12-25T06:11:48.277Z,17.27
2018-12-25T06:14:16.706Z,13.03
2018-12-25T06:16:45.168Z,15.00
2018-12-25T06:19:13.608Z,14.97
2018-12-25T06:21:42.064Z,13.90
2018-12-25T06:24:10.495Z,11.90
2018-12-25T06:26:38.959Z,12.83
2018-12-25T06:29:07.400Z,10.70
2018-12-25T06:31:35.873Z,12.40
2018-12-25T06:34:04.307Z,10.40
2018-12-25T06:36:32.752Z,13.53
2018-12-25T06:39:01.209Z,11.43
2018-12-25T06:41:29.683Z,14.57
2018-12-25T06:43:58.191Z,14.10
2018-12-25T06:46:26.636Z,13.30
2018-12-25T06:48:55.098Z,12.40
2018-12-25T06:51:23.543Z,13.27
2018-12-25T06:53:52.006Z,15.80
2018-12-25T06:56:20.458Z,11.87
2018-12-25T06:58:48.907Z,16.23
2018-12-25T07:01:17.425Z,13.07
2018-12-25T07:03:46.489Z,15.33
2018-12-25T07:06:14.928Z,14.50
2018-12-25T07:08:43.363Z,13.97
2018-12-25T07:11:11.825Z,14.30
2018-12-25T07:13:40.260Z,12.37
2018-12-25T07:16:08.738Z,13.57
2018-12-25T07:18:37.176Z,15.70
2018-12-25T07:21:12.109Z,15.93
2018-12-25T07:23:35.805Z,16.47
2018-12-25T07:26:04.269Z,10.90
2018-12-25T07:28:58.176Z,15.20
2018-12-25T07:31:26.877Z,11.47
2018-12-25T07:33:55.797Z,15.97
2018-12-25T07:36:24.252Z,14.73
2018-12-25T07:38:52.687Z,15.00
2018-12-25T07:41:21.148Z,14.07
2018-12-25T07:43:49.596Z,13.57
2018-12-25T07:46:18.052Z,14.00
2018-12-25T07:48:46.491Z,14.57
2018-12-25T07:51:20.683Z,15.77
2018-12-25T07:53:45.108Z,14.87
2018-12-25T07:56:13.572Z,15.40
2018-12-25T07:58:42.305Z,13.60
2018-12-25T08:01:10.909Z,15.30
2018-12-25T08:03:39.432Z,15.47
2018-12-25T08:06:07.885Z,15.23
2018-12-25T08:08:36.412Z,15.83
2018-12-25T08:11:04.856Z,15.47
2018-12-25T08:13:33.884Z,15.80
2018-12-25T08:16:02.335Z,15.93
2018-12-25T08:18:30.795Z,16.63
2018-12-25T08:20:59.252Z,16.40
2018-12-25T08:23:27.732Z,16.40
2018-12-25T08:25:57.732Z,14.83
2018-12-25T08:28:26.205Z,17.40
2018-12-25T08:31:02.391Z,16.63
2018-12-25T08:33:30.921Z,15.40
2018-12-25T08:36:02.545Z,15.83
2018-12-25T08:38:31.018Z,15.70
2018-12-25T08:40:59.463Z,17.43
2018-12-25T08:43:27.928Z,16.03
2018-12-25T08:45:56.378Z,16.63
2018-12-25T08:48:24.857Z,18.53
2018-12-25T08:50:53.385Z,17.67
2018-12-25T08:53:21.840Z,19.00
2018-12-25T08:55:50.311Z,17.63
2018-12-25T08:58:18.775Z,17.50
2018-12-25T09:00:47.226Z,19.03
2018-12-25T09:03:18.753Z,21.03
2018-12-25T09:05:47.220Z,19.33
2018-12-25T09:08:15.656Z,18.13
2018-12-25T09:10:44.125Z,22.77
2018-12-25T09:13:12.682Z,19.07
2018-12-25T09:15:41.126Z,17.40
2018-12-25T09:18:09.569Z,20.63
2018-12-25T09:20:38.031Z,20.43
2018-12-25T09:23:06.491Z,30.17
2018-12-25T09:25:35.026Z,19.07
2018-12-25T09:28:03.476Z,22.17
2018-12-25T09:30:33.723Z,19.50
2018-12-25T09:33:02.169Z,20.73
2018-12-25T09:35:30.644Z,22.40
2018-12-25T09:37:59.106Z,16.93
2018-12-25T09:40:27.569Z,17.40
2018-12-25T09:42:56.011Z,16.67
2018-12-25T09:45:24.567Z,17.13
2018-12-25T09:47:55.909Z,18.13
2018-12-25T09:50:24.350Z,19.13
2018-12-25T09:52:52.841Z,16.23
2018-12-25T09:55:21.286Z,15.13
2018-12-25T09:57:49.823Z,17.53
2018-12-25T10:00:18.272Z,15.03
2018-12-25T10:02:51.018Z,17.63
2018-12-25T10:05:16.964Z,14.57
2018-12-25T10:07:45.429Z,16.20
2018-12-25T10:10:13.881Z,16.33
2018-12-25T10:12:42.350Z,16.93
2018-12-25T10:15:10.788Z,16.43
2018-12-25T10:17:39.253Z,18.87
2018-12-25T10:20:07.773Z,14.17
2018-12-25T10:22:36.297Z,15.40
2018-12-25T10:25:04.887Z,15.83
2018-12-25T10:27:33.428Z,16.27
2018-12-25T10:30:01.872Z,13.73
2018-12-25T10:32:30.324Z,15.20
2018-12-25T10:34:58.780Z,15.93
2018-12-25T10:37:27.245Z,14.77
2018-12-25T10:39:55.733Z,13.77
2018-12-25T10:42:24.180Z,15.23
2018-12-25T10:44:52.639Z,13.37
2018-12-25T10:47:21.084Z,13.80
2018-12-25T10:49:49.663Z,13.80
2018-12-25T10:52:19.722Z,13.33
2018-12-25T10:54:48.185Z,13.40
2018-12-25T10:57:17.875Z,13.80
2018-12-25T10:59:46.440Z,13.97
2018-12-25T11:02:14.901Z,13.40
2018-12-25T11:04:43.415Z,12.47
2018-12-25T11:07:11.896Z,14.53
2018-12-25T11:09:40.368Z,9.70
2018-12-25T11:12:08.867Z,11.83
2018-12-25T11:14:37.347Z,13.37
2018-12-25T11:17:05.784Z,11.37
2018-12-25T11:19:35.785Z,9.23
2018-12-25T11:22:04.221Z,10.57
2018-12-25T11:24:34.409Z,11.30
2018-12-25T11:27:02.879Z,12.47
2018-12-25T11:29:31.368Z,9.13
2018-12-25T11:31:59.823Z,11.30
2018-12-25T11:34:28.275Z,10.97
2018-12-25T11:36:56.724Z,8.80
2018-12-25T11:39:25.171Z,10.17
2018-12-25T11:41:53.628Z,10.47
2018-12-25T11:44:22.073Z,9.87
2018-12-25T11:46:50.576Z,10.33
2018-12-25T11:49:19.134Z,9.83
2018-12-25T11:51:52.194Z,11.30
2018-12-25T11:54:20.633Z,9.33
2018-12-25T11:56:49.100Z,8.33
2018-12-25T11:59:17.607Z,14.40
2018-12-25T12:01:46.153Z,10.50
2018-12-25T12:04:14.597Z,7.53
2018-12-25T12:06:43.060Z,11.37
2018-12-25T12:09:11.514Z,7.73
2018-12-25T12:11:40.046Z,10.00
2018-12-25T12:14:08.489Z,9.43
2018-12-25T12:16:36.951Z,8.90
2018-12-25T12:19:05.380Z,7.80
2018-12-25T12:21:33.818Z,9.17
2018-12-25T12:24:02.320Z,10.60
2018-12-25T12:26:30.791Z,8.83
2018-12-25T12:28:59.372Z,9.83
2018-12-25T12:31:27.805Z,9.73
2018-12-25T12:33:56.270Z,13.00
2018-12-25T12:36:24.707Z,9.47
2018-12-25T12:38:53.156Z,8.50
2018-12-25T12:41:23.214Z,11.10
2018-12-25T12:43:51.740Z,9.53
2018-12-25T12:46:24.627Z,12.20
2018-12-25T12:48:53.096Z,9.97
2018-12-25T12:51:26.471Z,11.47
2018-12-25T12:53:55.085Z,10.33
2018-12-25T12:56:26.856Z,9.33
2018-12-25T12:58:55.300Z,12.80
2018-12-25T13:01:23.810Z,11.50
2018-12-25T13:03:52.243Z,14.37
2018-12-25T13:06:20.717Z,12.60
2018-12-25T13:08:49.189Z,12.33
2018-12-25T13:11:17.647Z,11.57
2018-12-25T13:13:46.102Z,10.40
2018-12-25T13:16:14.560Z,11.70
2018-12-25T13:18:43.004Z,12.37
2018-12-25T13:21:11.468Z,10.90
2018-12-25T13:23:42.915Z,12.00
2018-12-25T13:26:11.373Z,12.27
2018-12-25T13:28:39.908Z,13.73
2018-12-25T13:31:08.443Z,12.97
2018-12-25T13:33:36.901Z,14.97
2018-12-25T13:36:06.126Z,13.17
2018-12-25T13:38:34.576Z,13.13
2018-12-25T13:41:03.054Z,12.77
2018-12-25T13:43:31.493Z,14.00
2018-12-25T13:46:00.329Z,13.97
2018-12-25T13:48:28.805Z,14.43
2018-12-25T13:51:00.005Z,16.13
2018-12-25T13:53:29.402Z,13.57
2018-12-25T13:55:57.876Z,14.23
2018-12-25T13:58:26.387Z,18.23
2018-12-25T14:00:54.937Z,22.43
2018-12-25T14:03:23.380Z,18.53
2018-12-25T14:05:51.883Z,14.37
2018-12-25T14:08:20.354Z,16.03
2018-12-25T14:10:48.797Z,23.23
2018-12-25T14:13:17.273Z,24.90
2018-12-25T14:15:45.793Z,39.03
2018-12-25T14:18:15.865Z,46.43
2018-12-25T14:20:44.483Z,43.60
2018-12-25T14:23:13.216Z,25.23
2018-12-25T14:25:42.081Z,20.90
2018-12-25T14:28:10.745Z,28.73
2018-12-25T14:30:39.820Z,15.13
2018-12-25T14:33:08.686Z,12.43
2018-12-25T14:35:39.372Z,13.57
2018-12-25T14:38:08.094Z,16.43
2018-12-25T14:40:36.703Z,11.90
2018-12-25T14:43:05.256Z,13.97
2018-12-25T14:45:38.717Z,14.07
2018-12-25T14:48:07.242Z,13.53
2018-12-25T14:50:37.318Z,12.80
2018-12-25T14:53:05.902Z,16.93
2018-12-25T14:55:37.953Z,13.50
2018-12-25T14:58:06.470Z,14.37
2018-12-25T15:00:34.960Z,17.67
2018-12-25T15:03:03.560Z,18.90
2018-12-25T15:05:32.135Z,18.67
2018-12-25T15:08:00.642Z,19.87
2018-12-25T15:10:29.117Z,25.50
2018-12-25T15:12:57.569Z,22.63
2018-12-25T15:15:26.025Z,23.73
2018-12-25T15:17:54.939Z,23.63
2018-12-25T15:20:23.411Z,24.50
2018-12-25T15:22:55.111Z,39.73
2018-12-25T15:25:23.656Z,24.87
2018-12-25T15:27:52.095Z,41.33
2018-12-25T15:30:20.647Z,29.57
2018-12-25T15:32:49.092Z,25.00
2018-12-25T15:35:17.560Z,17.00
2018-12-25T15:37:46.013Z,33.70
2018-12-25T15:40:14.480Z,18.97
2018-12-25T15:42:43.003Z,37.63
2018-12-25T15:45:13.136Z,29.80
2018-12-25T15:47:41.689Z,31.67
2018-12-25T15:50:14.735Z,31.77
2018-12-25T15:52:43.383Z,25.00
2018-12-25T15:55:16.296Z,20.33
2018-12-25T15:57:44.907Z,20.77
2018-12-25T16:00:17.255Z,23.17
2018-12-25T16:02:45.773Z,20.87
2018-12-25T16:05:14.258Z,24.17
2018-12-25T16:07:42.715Z,24.37
2018-12-25T16:10:11.180Z,21.67
2018-12-25T16:12:39.697Z,26.90
2018-12-25T16:15:08.446Z,27.47
2018-12-25T16:17:38.519Z,21.17
2018-12-25T16:20:09.522Z,28.37
2018-12-25T16:22:37.956Z,29.23
2018-12-25T16:25:06.492Z,24.50
2018-12-25T16:27:34.932Z,23.83
2018-12-25T16:30:04.546Z,24.80
2018-12-25T16:32:32.989Z,34.73
2018-12-25T16:35:01.487Z,28.33
2018-12-25T16:37:29.953Z,29.23
2018-12-25T16:39:58.391Z,27.53
2018-12-25T16:42:26.860Z,28.87
2018-12-25T16:44:55.311Z,43.13
2018-12-25T16:47:23.792Z,44.20
2018-12-25T16:49:52.346Z,65.47
2018-12-25T16:52:20.816Z,44.43
2018-12-25T16:54:49.319Z,43.90
2018-12-25T16:57:17.797Z,43.30
2018-12-25T16:59:46.421Z,37.37
2018-12-25T17:02:14.885Z,30.13
2018-12-25T17:04:43.341Z,30.80
2018-12-25T17:07:11.821Z,28.83
2018-12-25T17:09:40.282Z,32.23
2018-12-25T17:12:08.753Z,23.67
2018-12-25T17:14:37.210Z,28.73
2018-12-25T17:17:05.763Z,29.30
2018-12-25T17:19:34.212Z,29.97
2018-12-25T17:22:02.651Z,31.13
2018-12-25T17:24:31.128Z,28.97
2018-12-25T17:26:59.572Z,32.27
2018-12-25T17:29:28.116Z,34.13
2018-12-25T17:31:56.573Z,31.35
2018-12-25T17:34:25.049Z,36.60
2018-12-25T17:36:53.497Z,34.80
2018-12-25T17:39:22.042Z,34.48
2018-12-25T17:41:50.544Z,29.80
2018-12-25T17:44:19.005Z,36.08
2018-12-25T17:46:47.464Z,35.77
2018-12-25T17:49:15.942Z,40.35
2018-12-25T17:51:44.448Z,40.05
2018-12-25T17:54:12.920Z,45.93
2018-12-25T17:56:41.383Z,37.70
2018-12-25T17:59:09.851Z,41.20
2018-12-25T18:01:38.326Z,35.80
2018-12-25T18:04:06.890Z,38.57
2018-12-25T18:06:35.344Z,34.43
2018-12-25T18:09:05.391Z,34.27
2018-12-25T18:11:33.907Z,33.83
2018-12-25T18:14:02.655Z,37.20
2018-12-25T18:16:31.180Z,36.97
2018-12-25T18:18:59.716Z,38.40
2018-12-25T18:21:28.174Z,37.05
2018-12-25T18:23:56.713Z,33.47
2018-12-25T18:26:25.164Z,37.53
2018-12-25T18:28:53.639Z,39.57
2018-12-25T18:31:22.092Z,32.77
2018-12-25T18:33:50.556Z,36.27
2018-12-25T18:36:19.014Z,34.83
2018-12-25T18:38:47.487Z,32.47
2018-12-25T18:41:15.979Z,34.47
2018-12-25T18:43:44.432Z,34.90
2018-12-25T18:46:13.001Z,33.02
2018-12-25T18:48:41.450Z,33.30
2018-12-25T18:51:09.913Z,31.63
2018-12-25T18:53:38.365Z,27.73
2018-12-25T18:56:07.165Z,31.80
2018-12-25T18:58:35.612Z,33.35
2018-12-25T19:01:04.172Z,31.50
2018-12-25T19:03:32.616Z,28.47
2018-12-25T19:06:01.093Z,32.37
2018-12-25T19:08:29.550Z,27.63
2018-12-25T19:10:58.019Z,31.20
2018-12-25T19:13:26.472Z,27.70
2018-12-25T19:15:55.015Z,30.32
2018-12-25T19:18:23.476Z,30.80
2018-12-25T19:20:52.043Z,30.12
2018-12-25T19:23:20.580Z,27.87
2018-12-25T19:25:49.035Z,30.27
2018-12-25T19:28:17.628Z,31.55
2018-12-25T19:30:46.096Z,31.70
2018-12-25T19:33:14.605Z,31.33
2018-12-25T19:35:43.141Z,28.10
2018-12-25T19:38:11.633Z,29.18
2018-12-25T19:40:40.239Z,26.42
2018-12-25T19:43:08.688Z,31.35
2018-12-25T19:45:37.236Z,32.45
2018-12-25T19:48:05.718Z,29.25
2018-12-25T19:50:34.532Z,35.00
2018-12-25T19:53:03.138Z,30.70
2018-12-25T19:55:31.660Z,29.35
2018-12-25T19:58:00.165Z,33.00
2018-12-25T20:00:28.616Z,40.50
2018-12-25T20:03:00.021Z,36.23
2018-12-25T20:05:31.626Z,33.53
2018-12-25T20:08:08.900Z,36.68
2018-12-25T20:10:43.030Z,34.67
2018-12-25T20:13:45.056Z,37.03
2018-12-25T20:16:49.185Z,35.33
2018-12-25T20:19:26.646Z,35.52
2018-12-25T20:22:01.108Z,35.30
2018-12-25T20:24:35.746Z,33.05
2018-12-25T20:27:31.632Z,36.85
2018-12-25T20:30:27.502Z,35.10
2018-12-25T20:33:18.501Z,32.40
2018-12-25T20:35:56.767Z,35.95
2018-12-25T20:38:57.308Z,36.73
2018-12-25T20:41:52.677Z,34.25
2018-12-25T20:44:43.745Z,33.58
2018-12-25T20:47:42.490Z,30.85
2018-12-25T20:50:44.459Z,35.73
2018-12-25T20:53:21.736Z,33.70
2018-12-25T20:55:53.301Z,33.78
2018-12-25T20:58:36.979Z,35.70
2018-12-25T21:01:11.373Z,39.45
2018-12-25T21:03:45.620Z,39.63
2018-12-25T21:06:49.181Z,38.13
2018-12-25T21:09:55.810Z,40.65
2018-12-25T21:12:54.121Z,41.00
2018-12-25T21:15:43.348Z,39.48
2018-12-25T21:18:23.331Z,38.02
2018-12-25T21:21:11.296Z,40.52
2018-12-25T21:24:16.513Z,43.80
2018-12-25T21:27:21.481Z,51.88
2018-12-25T21:29:50.010Z,38.25
2018-12-25T21:32:18.539Z,39.50
2018-12-25T21:34:47.159Z,40.45
2018-12-25T21:37:16.048Z,37.00
2018-12-25T21:39:44.921Z,39.58
2018-12-25T21:42:14.410Z,39.70
2018-12-25T21:44:43.133Z,41.77
2018-12-25T21:47:11.703Z,41.35
2018-12-25T21:49:43.323Z,43.00
2018-12-25T21:52:11.959Z,43.05
2018-12-25T21:54:40.769Z,44.53
2018-12-25T21:57:10.448Z,42.25
2018-12-25T21:59:39.471Z,47.70
2018-12-25T22:02:08.184Z,42.95
2018-12-25T22:04:36.729Z,50.60
2018-12-25T22:07:05.176Z,50.95
2018-12-25T22:09:33.644Z,48.92
2018-12-25T22:12:02.144Z,49.75
2018-12-25T22:14:30.608Z,53.50
2018-12-25T22:16:59.064Z,51.28
2018-12-25T22:19:27.544Z,53.68
2018-12-25T22:21:56.004Z,48.50
2018-12-25T22:24:24.479Z,52.65
2018-12-25T22:26:52.933Z,51.02
2018-12-25T22:29:21.429Z,48.45
2018-12-25T22:31:49.881Z,52.75
2018-12-25T22:34:18.336Z,54.48
2018-12-25T22:36:46.885Z,49.08
2018-12-25T22:39:15.322Z,51.37
2018-12-25T22:41:43.795Z,53.63
2018-12-25T22:44:12.261Z,48.35
2018-12-25T22:46:40.733Z,53.13
2018-12-25T22:49:09.193Z,51.75
2018-12-25T22:51:37.995Z,49.08
2018-12-25T22:54:06.463Z,45.23
2018-12-25T22:56:34.928Z,55.10
2018-12-25T22:59:03.473Z,49.20
2018-12-25T23:01:31.944Z,55.28
2018-12-25T23:04:00.801Z,48.98
2018-12-25T23:06:29.327Z,49.50
2018-12-25T23:08:57.785Z,55.43
2018-12-25T23:11:26.250Z,51.25
2018-12-25T23:13:54.706Z,56.30
2018-12-25T23:16:23.156Z,53.78
2018-12-25T23:18:51.645Z,57.38
2018-12-25T23:21:20.116Z,51.50
2018-12-25T23:23:48.685Z,49.60
2018-12-25T23:26:17.147Z,50.78
2018-12-25T23:28:45.645Z,49.18
2018-12-25T23:31:14.490Z,49.75
2018-12-25T23:33:43.019Z,49.58
2018-12-25T23:36:11.477Z,47.73
2018-12-25T23:38:39.937Z,52.93
2018-12-25T23:41:30.419Z,42.88
2018-12-25T23:43:58.902Z,46.63
2018-12-25T23:46:27.685Z,51.55
2018-12-25T23:48:56.156Z,50.45
2018-12-25T23:51:24.616Z,54.13
2018-12-25T23:53:53.082Z,45.92
2018-12-25T23:56:21.537Z,50.67
2018-12-25T23:58:50.110Z,52.70
